createdAt,value
2019-02-17T00:00:43.429Z,56.00
2019-02-17T00:03:12.829Z,56.10
2019-02-17T00:05:42.253Z,56.10
2019-02-17T00:08:11.652Z,56.00
2019-02-17T00:10:41.064Z,54.50
2019-02-17T00:13:10.507Z,53.50
2019-02-17T00:15:39.942Z,54.00
2019-02-17T00:18:09.347Z,54.80
2019-02-17T00:20:38.757Z,55.40
2019-02-17T00:23:08.152Z,55.80
2019-02-17T00:25:37.615Z,56.30
2019-02-17T00:28:07.015Z,56.50
2019-02-17T00:30:36.435Z,56.70
2019-02-17T00:33:05.832Z,56.90
2019-02-17T00:35:35.262Z,57.60
2019-02-17T00:38:04.677Z,57.20
2019-02-17T00:40:34.069Z,57.50
2019-02-17T00:43:03.486Z,57.60
2019-02-17T00:45:32.931Z,57.70
2019-02-17T00:48:02.338Z,57.70
2019-02-17T00:50:31.759Z,57.70
2019-02-17T00:53:01.149Z,58.00
2019-02-17T00:55:30.579Z,58.00
2019-02-17T00:57:59.992Z,58.10
2019-02-17T01:00:29.392Z,58.30
2019-02-17T01:02:58.819Z,58.40
2019-02-17T01:05:28.227Z,58.20
2019-02-17T01:07:57.623Z,58.40
2019-02-17T01:10:27.097Z,58.70
2019-02-17T01:12:56.485Z,58.70
2019-02-17T01:15:25.884Z,58.80
2019-02-17T01:17:55.314Z,58.90
2019-02-17T01:20:24.724Z,59.00
2019-02-17T01:22:54.161Z,59.10
2019-02-17T01:25:25.259Z,59.00
2019-02-17T01:27:54.720Z,59.00
2019-02-17T01:30:24.154Z,59.10
2019-02-17T01:32:53.728Z,59.20
2019-02-17T01:35:23.162Z,59.30
2019-02-17T01:37:52.562Z,59.10
2019-02-17T01:40:21.990Z,58.90
2019-02-17T01:42:51.406Z,58.90
2019-02-17T01:45:20.804Z,58.90
2019-02-17T01:47:50.225Z,57.90
2019-02-17T01:50:19.637Z,57.10
2019-02-17T01:52:49.163Z,56.70
2019-02-17T01:55:18.634Z,57.00
2019-02-17T01:57:48.024Z,57.60
2019-02-17T02:00:17.541Z,57.90
2019-02-17T02:02:46.956Z,57.60
2019-02-17T02:05:16.381Z,57.20
2019-02-17T02:07:46.565Z,57.70
2019-02-17T02:10:16.010Z,57.10
2019-02-17T02:12:45.403Z,57.50
2019-02-17T02:15:14.812Z,57.60
2019-02-17T02:17:44.258Z,57.70
2019-02-17T02:20:14.132Z,57.50
2019-02-17T02:22:43.561Z,57.60
2019-02-17T02:25:12.986Z,57.80
2019-02-17T02:27:42.387Z,58.60
2019-02-17T02:30:13.338Z,58.30
2019-02-17T02:32:42.751Z,58.70
2019-02-17T02:35:12.137Z,58.90
2019-02-17T02:37:42.044Z,60.00
2019-02-17T02:40:11.469Z,60.20
2019-02-17T02:42:40.850Z,60.20
2019-02-17T02:45:13.159Z,60.80
2019-02-17T02:47:42.760Z,61.20
2019-02-17T02:50:12.161Z,61.10
2019-02-17T02:52:41.753Z,61.30
2019-02-17T02:55:11.186Z,60.90
2019-02-17T02:57:40.597Z,61.10
2019-02-17T03:00:11.710Z,61.20
2019-02-17T03:02:41.142Z,61.30
2019-02-17T03:05:12.177Z,61.50
2019-02-17T03:07:43.282Z,61.50
2019-02-17T03:10:12.708Z,61.50
2019-02-17T03:12:42.108Z,61.40
2019-02-17T03:15:11.511Z,62.20
2019-02-17T03:17:40.952Z,61.30
2019-02-17T03:20:10.612Z,61.30
2019-02-17T03:22:40.015Z,61.20
2019-02-17T03:25:09.434Z,61.20
2019-02-17T03:27:38.839Z,60.80
2019-02-17T03:30:10.315Z,60.90
2019-02-17T03:32:39.709Z,60.90
2019-02-17T03:35:09.109Z,61.00
2019-02-17T03:37:38.512Z,61.00
2019-02-17T03:40:09.106Z,61.20
2019-02-17T03:42:38.496Z,60.80
2019-02-17T03:45:10.073Z,60.00
2019-02-17T03:47:39.523Z,59.00
2019-02-17T03:50:08.934Z,58.20
2019-02-17T03:52:38.330Z,58.00
2019-02-17T03:55:07.747Z,57.80
2019-02-17T03:57:37.144Z,57.30
2019-02-17T04:00:16.521Z,57.40
2019-02-17T04:02:39.432Z,57.60
2019-02-17T04:05:08.831Z,57.50
2019-02-17T04:07:38.223Z,58.00
2019-02-17T04:10:07.718Z,57.80
2019-02-17T04:12:37.132Z,57.80
2019-02-17T04:15:07.567Z,58.00
2019-02-17T04:17:36.992Z,58.20
2019-02-17T04:20:07.744Z,58.30
2019-02-17T04:22:37.146Z,58.60
2019-02-17T04:25:06.939Z,58.80
2019-02-17T04:27:36.342Z,59.30
2019-02-17T04:30:06.405Z,59.80
2019-02-17T04:32:35.887Z,59.90
2019-02-17T04:35:05.690Z,60.00
2019-02-17T04:37:35.092Z,60.30
2019-02-17T04:40:05.549Z,60.30
2019-02-17T04:42:34.947Z,60.60
2019-02-17T04:45:05.592Z,60.90
2019-02-17T04:47:35.015Z,61.00
2019-02-17T04:50:05.459Z,61.20
2019-02-17T04:52:34.874Z,61.40
2019-02-17T04:55:04.360Z,61.40
2019-02-17T04:57:33.774Z,61.40
2019-02-17T05:00:03.912Z,61.50
2019-02-17T05:02:33.417Z,61.40
2019-02-17T05:05:02.825Z,61.50
2019-02-17T05:07:32.224Z,61.70
2019-02-17T05:10:02.197Z,62.30
2019-02-17T05:12:31.608Z,61.40
2019-02-17T05:15:01.005Z,60.80
2019-02-17T05:17:30.458Z,60.50
2019-02-17T05:19:59.834Z,60.00
2019-02-17T05:22:29.239Z,59.50
2019-02-17T05:24:58.678Z,59.10
2019-02-17T05:27:28.036Z,59.40
2019-02-17T05:29:57.428Z,59.60
2019-02-17T05:32:26.888Z,59.60
2019-02-17T05:34:58.903Z,59.20
2019-02-17T05:37:27.314Z,59.10
2019-02-17T05:39:56.754Z,58.90
2019-02-17T05:42:26.149Z,58.70
2019-02-17T05:44:55.552Z,58.90
2019-02-17T05:47:24.996Z,58.70
2019-02-17T05:49:54.376Z,58.60
2019-02-17T05:52:23.804Z,58.30
2019-02-17T05:54:53.235Z,58.40
2019-02-17T05:57:22.663Z,58.90
2019-02-17T05:59:52.050Z,59.00
2019-02-17T06:02:21.439Z,58.90
2019-02-17T06:04:50.855Z,58.40
2019-02-17T06:07:20.259Z,58.40
2019-02-17T06:09:49.692Z,58.00
2019-02-17T06:12:19.092Z,58.10
2019-02-17T06:14:48.505Z,58.40
2019-02-17T06:17:17.929Z,58.70
2019-02-17T06:19:47.330Z,58.50
2019-02-17T06:22:16.722Z,58.50
2019-02-17T06:24:46.144Z,58.00
2019-02-17T06:27:15.546Z,57.60
2019-02-17T06:29:44.969Z,57.40
2019-02-17T06:32:14.399Z,57.70
2019-02-17T06:34:43.797Z,58.30
2019-02-17T06:37:13.219Z,58.60
2019-02-17T06:39:42.664Z,58.60
2019-02-17T06:42:12.061Z,58.60
2019-02-17T06:44:41.466Z,57.80
2019-02-17T06:47:12.522Z,57.70
2019-02-17T06:49:41.933Z,58.00
2019-02-17T06:52:11.332Z,58.20
2019-02-17T06:54:42.129Z,58.50
2019-02-17T06:57:13.172Z,58.60
2019-02-17T06:59:42.562Z,59.00
2019-02-17T07:02:11.986Z,59.10
2019-02-17T07:04:43.029Z,59.30
2019-02-17T07:07:12.410Z,59.20
2019-02-17T07:09:41.827Z,59.30
2019-02-17T07:12:11.244Z,59.50
2019-02-17T07:14:40.615Z,59.70
2019-02-17T07:17:10.028Z,59.70
2019-02-17T07:19:39.430Z,59.50
2019-02-17T07:22:08.827Z,59.50
2019-02-17T07:24:38.233Z,59.60
2019-02-17T07:27:07.648Z,59.80
2019-02-17T07:29:37.053Z,59.60
2019-02-17T07:32:06.473Z,59.60
2019-02-17T07:34:35.894Z,59.70
2019-02-17T07:37:05.271Z,59.60
2019-02-17T07:39:34.696Z,60.50
2019-02-17T07:42:04.094Z,61.70
2019-02-17T07:44:33.484Z,60.40
2019-02-17T07:47:02.930Z,59.00
2019-02-17T07:49:32.323Z,58.80
2019-02-17T07:52:01.715Z,58.50
2019-02-17T07:54:31.125Z,58.50
2019-02-17T07:57:00.514Z,58.50
2019-02-17T07:59:29.964Z,58.30
2019-02-17T08:01:59.327Z,58.30
2019-02-17T08:04:28.719Z,58.60
2019-02-17T08:06:58.135Z,59.30
2019-02-17T08:09:27.522Z,59.30
2019-02-17T08:11:56.926Z,59.10
2019-02-17T08:14:26.324Z,59.30
2019-02-17T08:16:55.732Z,59.30
2019-02-17T08:19:25.131Z,58.80
2019-02-17T08:21:54.536Z,58.90
2019-02-17T08:24:23.919Z,58.20
2019-02-17T08:26:53.331Z,57.80
2019-02-17T08:29:22.727Z,57.60
2019-02-17T08:31:55.998Z,57.60
2019-02-17T08:34:23.160Z,57.50
2019-02-17T08:36:52.572Z,57.20
2019-02-17T08:39:21.992Z,57.00
2019-02-17T08:41:51.383Z,56.50
2019-02-17T08:44:20.798Z,57.00
2019-02-17T08:46:50.191Z,56.60
2019-02-17T08:49:19.659Z,56.60
2019-02-17T08:51:49.010Z,56.40
2019-02-17T08:54:18.413Z,56.00
2019-02-17T08:56:47.849Z,55.30
2019-02-17T08:59:17.220Z,55.00
2019-02-17T09:01:46.626Z,55.20
2019-02-17T09:04:16.029Z,55.20
2019-02-17T09:06:45.442Z,55.30
2019-02-17T09:09:14.847Z,54.70
2019-02-17T09:11:44.323Z,54.90
2019-02-17T09:14:13.737Z,55.10
2019-02-17T09:16:43.132Z,54.90
2019-02-17T09:19:12.562Z,55.10
2019-02-17T09:21:41.968Z,53.80
2019-02-17T09:24:11.376Z,53.60
2019-02-17T09:26:40.800Z,53.50
2019-02-17T09:29:10.203Z,52.70
2019-02-17T09:31:39.635Z,53.00
2019-02-17T09:34:09.039Z,53.40
2019-02-17T09:36:38.443Z,53.10
2019-02-17T09:39:08.826Z,52.10
2019-02-17T09:41:38.261Z,51.90
2019-02-17T09:44:07.666Z,51.30
2019-02-17T09:46:38.758Z,50.00
2019-02-17T09:49:08.121Z,48.90
2019-02-17T09:51:37.528Z,49.10
2019-02-17T09:54:06.970Z,48.30
2019-02-17T09:56:36.367Z,48.60
2019-02-17T09:59:05.778Z,48.40
2019-02-17T10:01:35.189Z,48.20
2019-02-17T10:04:04.601Z,48.80
2019-02-17T10:06:34.039Z,48.10
2019-02-17T10:09:04.900Z,46.90
2019-02-17T10:11:34.301Z,45.90
2019-02-17T10:14:03.696Z,45.10
2019-02-17T10:16:33.111Z,45.80
2019-02-17T10:19:02.518Z,45.80
2019-02-17T10:21:31.950Z,45.20
2019-02-17T10:24:01.375Z,45.00
2019-02-17T10:26:30.760Z,44.20
2019-02-17T10:29:00.179Z,44.90
2019-02-17T10:31:29.591Z,45.40
2019-02-17T10:33:59.027Z,45.30
2019-02-17T10:36:28.474Z,44.60
2019-02-17T10:38:58.527Z,43.40
2019-02-17T10:41:28.199Z,42.70
2019-02-17T10:43:57.631Z,42.90
2019-02-17T10:46:27.046Z,43.30
2019-02-17T10:48:56.443Z,42.80
2019-02-17T10:51:26.529Z,42.80
2019-02-17T10:53:56.173Z,42.20
2019-02-17T10:56:25.596Z,41.40
2019-02-17T10:58:54.999Z,41.90
2019-02-17T11:01:24.402Z,42.50
2019-02-17T11:04:05.303Z,41.50
2019-02-17T11:06:34.700Z,40.60
2019-02-17T11:09:06.011Z,40.90
2019-02-17T11:11:35.437Z,40.90
2019-02-17T11:14:04.821Z,41.60
2019-02-17T11:16:34.232Z,41.10
2019-02-17T11:19:03.643Z,40.50
2019-02-17T11:21:33.044Z,40.10
2019-02-17T11:24:02.476Z,38.30
2019-02-17T11:26:31.888Z,37.60
2019-02-17T11:29:01.296Z,37.10
2019-02-17T11:31:30.724Z,37.90
2019-02-17T11:34:00.151Z,36.90
2019-02-17T11:36:29.577Z,36.40
2019-02-17T11:39:00.795Z,35.70
2019-02-17T11:41:30.203Z,35.50
2019-02-17T11:43:59.616Z,36.30
2019-02-17T11:46:29.023Z,36.10
2019-02-17T11:48:58.419Z,36.20
2019-02-17T11:51:27.842Z,36.30
2019-02-17T11:53:57.238Z,36.10
2019-02-17T11:56:26.636Z,36.10
2019-02-17T11:58:56.049Z,36.30
2019-02-17T12:01:25.472Z,36.40
2019-02-17T12:03:54.872Z,36.40
2019-02-17T12:06:24.285Z,35.80
2019-02-17T12:08:53.687Z,34.20
2019-02-17T12:11:23.095Z,33.60
2019-02-17T12:13:52.764Z,33.80
2019-02-17T12:16:22.187Z,34.50
2019-02-17T12:18:51.604Z,32.60
2019-02-17T12:21:40.719Z,33.00
2019-02-17T12:24:11.496Z,33.20
2019-02-17T12:26:57.500Z,34.20
2019-02-17T12:29:28.524Z,34.00
2019-02-17T12:31:57.985Z,34.10
2019-02-17T12:34:27.359Z,34.20
2019-02-17T12:36:56.796Z,34.10
2019-02-17T12:39:26.224Z,35.00
2019-02-17T12:41:55.612Z,34.30
2019-02-17T12:44:25.017Z,34.20
2019-02-17T12:46:54.600Z,34.40
2019-02-17T12:49:24.129Z,34.50
2019-02-17T12:51:53.580Z,33.80
2019-02-17T12:54:29.107Z,33.10
2019-02-17T12:56:54.002Z,34.00
2019-02-17T12:59:23.411Z,34.40
2019-02-17T13:01:52.806Z,34.20
2019-02-17T13:04:22.237Z,33.70
2019-02-17T13:06:51.645Z,33.30
2019-02-17T13:09:21.067Z,33.90
2019-02-17T13:11:50.475Z,33.50
2019-02-17T13:14:19.883Z,32.80
2019-02-17T13:16:49.339Z,32.80
2019-02-17T13:19:18.764Z,32.10
2019-02-17T13:21:48.186Z,32.20
2019-02-17T13:24:17.623Z,33.00
2019-02-17T13:26:47.267Z,31.90
2019-02-17T13:29:16.808Z,31.40
2019-02-17T13:31:46.226Z,30.50
2019-02-17T13:34:15.628Z,30.00
2019-02-17T13:36:45.066Z,30.10
2019-02-17T13:39:14.465Z,30.10
2019-02-17T13:41:43.867Z,29.50
2019-02-17T13:44:13.255Z,29.40
2019-02-17T13:46:42.689Z,29.60
2019-02-17T13:49:12.084Z,29.70
2019-02-17T13:51:41.573Z,29.60
2019-02-17T13:54:10.928Z,29.00
2019-02-17T13:56:40.339Z,29.00
2019-02-17T13:59:09.774Z,29.00
2019-02-17T14:01:39.180Z,28.90
2019-02-17T14:04:13.479Z,28.80
2019-02-17T14:06:42.932Z,28.70
2019-02-17T14:09:12.325Z,29.30
2019-02-17T14:11:41.736Z,29.00
2019-02-17T14:14:11.203Z,28.70
2019-02-17T14:16:40.599Z,28.20
2019-02-17T14:19:09.996Z,28.40
2019-02-17T14:21:39.416Z,28.60
2019-02-17T14:24:08.841Z,28.60
2019-02-17T14:26:38.242Z,28.70
2019-02-17T14:29:07.705Z,28.60
2019-02-17T14:31:37.128Z,28.80
2019-02-17T14:34:07.856Z,28.70
2019-02-17T14:36:37.287Z,28.40
2019-02-17T14:39:06.698Z,28.40
2019-02-17T14:41:36.089Z,28.90
2019-02-17T14:44:05.568Z,28.90
2019-02-17T14:46:34.997Z,29.50
2019-02-17T14:49:04.396Z,29.50
2019-02-17T14:51:35.467Z,29.70
2019-02-17T14:54:06.614Z,29.90
2019-02-17T14:56:36.228Z,29.20
2019-02-17T14:59:05.772Z,29.90
2019-02-17T15:01:35.172Z,29.30
2019-02-17T15:04:08.823Z,29.30
2019-02-17T15:06:35.642Z,29.90
2019-02-17T15:09:06.778Z,30.50
2019-02-17T15:11:36.228Z,30.60
2019-02-17T15:14:05.626Z,30.80
2019-02-17T15:16:35.024Z,31.10
2019-02-17T15:19:04.432Z,31.00
2019-02-17T15:21:33.836Z,31.00
2019-02-17T15:24:03.271Z,30.90
2019-02-17T15:26:32.673Z,31.10
2019-02-17T15:29:02.069Z,31.10
2019-02-17T15:31:31.502Z,31.20
2019-02-17T15:34:00.907Z,31.30
2019-02-17T15:36:30.322Z,31.10
2019-02-17T15:38:59.746Z,31.40
2019-02-17T15:41:29.148Z,31.60
2019-02-17T15:43:58.596Z,31.40
2019-02-17T15:46:28.021Z,31.70
2019-02-17T15:48:57.477Z,31.70
2019-02-17T15:51:26.941Z,32.00
2019-02-17T15:53:56.392Z,31.50
2019-02-17T15:56:25.813Z,31.70
2019-02-17T15:58:55.271Z,32.10
2019-02-17T16:01:24.695Z,32.30
2019-02-17T16:03:54.136Z,32.00
2019-02-17T16:06:23.536Z,31.80
2019-02-17T16:08:53.054Z,32.00
2019-02-17T16:11:22.456Z,32.10
2019-02-17T16:13:51.877Z,32.10
2019-02-17T16:16:21.526Z,31.90
2019-02-17T16:18:50.929Z,32.00
2019-02-17T16:21:20.336Z,32.70
2019-02-17T16:23:49.742Z,32.00
2019-02-17T16:26:19.180Z,32.10
2019-02-17T16:28:48.642Z,32.50
2019-02-17T16:31:18.064Z,33.00
2019-02-17T16:33:47.449Z,33.70
2019-02-17T16:36:16.872Z,34.00
2019-02-17T16:39:23.603Z,34.50
2019-02-17T16:41:53.038Z,35.30
2019-02-17T16:44:22.520Z,35.80
2019-02-17T16:46:51.893Z,35.90
2019-02-17T16:49:21.309Z,36.10
2019-02-17T16:51:50.704Z,36.10
2019-02-17T16:54:20.183Z,36.20
2019-02-17T16:56:49.574Z,36.20
2019-02-17T16:59:18.976Z,36.50
2019-02-17T17:01:48.383Z,36.70
2019-02-17T17:04:17.798Z,36.70
2019-02-17T17:06:47.231Z,36.90
2019-02-17T17:09:16.636Z,37.20
2019-02-17T17:11:46.049Z,37.40
2019-02-17T17:14:15.465Z,37.70
2019-02-17T17:16:44.898Z,38.20
2019-02-17T17:19:14.304Z,38.20
2019-02-17T17:21:43.724Z,38.40
2019-02-17T17:24:13.151Z,38.80
2019-02-17T17:26:44.169Z,39.00
2019-02-17T17:29:13.583Z,39.10
2019-02-17T17:31:42.999Z,39.30
2019-02-17T17:34:12.464Z,39.20
2019-02-17T17:36:41.906Z,39.40
2019-02-17T17:39:11.316Z,39.50
2019-02-17T17:41:40.737Z,40.00
2019-02-17T17:44:10.149Z,40.30
2019-02-17T17:46:39.597Z,40.50
2019-02-17T17:49:19.039Z,41.50
2019-02-17T17:51:42.154Z,41.00
2019-02-17T17:54:11.548Z,41.10
2019-02-17T17:56:41.029Z,40.80
2019-02-17T17:59:10.484Z,41.10
2019-02-17T18:01:39.898Z,40.90
2019-02-17T18:04:10.594Z,40.90
2019-02-17T18:06:40.074Z,41.00
2019-02-17T18:09:09.549Z,41.00
2019-02-17T18:11:41.841Z,41.20
2019-02-17T18:14:14.173Z,41.10
2019-02-17T18:16:49.049Z,41.40
2019-02-17T18:19:21.839Z,41.40
2019-02-17T18:21:52.306Z,41.20
2019-02-17T18:24:26.765Z,41.10
2019-02-17T18:26:58.195Z,41.20
2019-02-17T18:29:28.120Z,41.50
2019-02-17T18:32:03.088Z,41.10
2019-02-17T18:34:32.444Z,41.40
2019-02-17T18:37:03.960Z,41.50
2019-02-17T18:39:35.924Z,41.50
2019-02-17T18:42:05.391Z,41.60
2019-02-17T18:44:41.632Z,41.80
2019-02-17T18:47:12.943Z,41.40
2019-02-17T18:49:48.028Z,41.30
2019-02-17T18:52:20.926Z,41.50
2019-02-17T18:54:50.550Z,41.80
2019-02-17T18:57:19.935Z,41.70
2019-02-17T18:59:49.319Z,41.90
2019-02-17T19:02:18.745Z,41.90
2019-02-17T19:04:48.124Z,42.20
2019-02-17T19:07:17.519Z,42.60
2019-02-17T19:09:46.972Z,42.90
2019-02-17T19:12:16.385Z,43.20
2019-02-17T19:14:45.823Z,43.20
2019-02-17T19:17:17.134Z,43.50
2019-02-17T19:19:47.070Z,43.70
2019-02-17T19:22:19.091Z,43.80
2019-02-17T19:24:48.523Z,43.90
2019-02-17T19:27:19.943Z,43.90
2019-02-17T19:29:49.411Z,44.00
2019-02-17T19:32:18.943Z,44.20
2019-02-17T19:34:51.214Z,44.00
2019-02-17T19:37:20.604Z,43.80
2019-02-17T19:39:53.181Z,44.10
2019-02-17T19:42:21.709Z,44.00
2019-02-17T19:44:51.584Z,44.20
2019-02-17T19:47:22.064Z,44.50
2019-02-17T19:49:51.449Z,44.50
2019-02-17T19:52:20.958Z,44.50
2019-02-17T19:54:53.208Z,44.70
2019-02-17T19:57:24.895Z,44.60
2019-02-17T19:59:54.254Z,44.60
2019-02-17T20:02:25.475Z,44.60
2019-02-17T20:04:56.593Z,44.80
2019-02-17T20:07:26.407Z,44.90
2019-02-17T20:09:55.808Z,45.10
2019-02-17T20:12:25.242Z,45.40
2019-02-17T20:15:00.443Z,45.60
2019-02-17T20:17:31.682Z,45.50
2019-02-17T20:20:03.065Z,45.60
2019-02-17T20:22:32.772Z,45.60
2019-02-17T20:25:02.352Z,45.70
2019-02-17T20:27:31.881Z,45.80
2019-02-17T20:30:02.216Z,45.90
2019-02-17T20:32:32.233Z,45.90
2019-02-17T20:35:02.047Z,45.90
2019-02-17T20:37:31.745Z,46.00
2019-02-17T20:40:01.258Z,46.10
2019-02-17T20:42:30.650Z,46.40
2019-02-17T20:45:00.490Z,46.80
2019-02-17T20:47:30.111Z,46.80
2019-02-17T20:52:54.755Z,47.10
2019-02-17T20:55:28.356Z,47.30
2019-02-17T20:57:58.569Z,47.70
2019-02-17T21:00:28.834Z,47.60
2019-02-17T21:03:01.992Z,47.50
2019-02-17T21:05:32.444Z,47.50
2019-02-17T21:08:03.996Z,47.50
2019-02-17T21:16:22.472Z,47.90
2019-02-17T21:18:51.908Z,48.00
2019-02-17T21:21:21.309Z,48.20
2019-02-17T21:23:50.772Z,48.10
2019-02-17T21:26:26.013Z,48.00
2019-02-17T21:28:51.206Z,48.20
2019-02-17T21:31:20.604Z,48.20
2019-02-17T21:33:50.109Z,48.50
2019-02-17T21:36:23.246Z,48.80
2019-02-17T21:38:50.764Z,48.80
2019-02-17T21:41:20.196Z,49.20
2019-02-17T21:43:49.716Z,49.50
2019-02-17T21:46:19.134Z,49.90
2019-02-17T21:48:48.545Z,50.20
2019-02-17T21:51:17.968Z,50.10
2019-02-17T21:53:47.376Z,50.10
2019-02-17T21:56:16.776Z,49.70
2019-02-17T21:58:46.223Z,49.70
2019-02-17T22:01:15.626Z,49.70
2019-02-17T22:03:45.188Z,49.70
2019-02-17T22:06:14.592Z,50.00
2019-02-17T22:08:43.992Z,50.20
2019-02-17T22:11:13.428Z,50.20
2019-02-17T22:13:42.831Z,50.40
2019-02-17T22:16:12.253Z,50.70
2019-02-17T22:18:41.643Z,50.90
2019-02-17T22:21:11.062Z,50.90
2019-02-17T22:23:40.529Z,51.00
2019-02-17T22:26:09.931Z,51.30
2019-02-17T22:28:39.372Z,51.00
2019-02-17T22:31:08.874Z,51.10
2019-02-17T22:33:38.319Z,51.10
2019-02-17T22:36:07.704Z,51.10
2019-02-17T22:38:37.100Z,51.10
2019-02-17T22:41:06.548Z,51.20
2019-02-17T22:43:35.980Z,51.40
2019-02-17T22:46:05.399Z,51.30
2019-02-17T22:48:34.803Z,51.30
2019-02-17T22:51:04.256Z,51.30
2019-02-17T22:53:43.082Z,51.40
2019-02-17T22:56:04.699Z,51.10
2019-02-17T22:58:34.097Z,51.00
2019-02-17T23:01:05.087Z,51.00
2019-02-17T23:03:34.490Z,51.10
2019-02-17T23:06:03.910Z,51.10
2019-02-17T23:08:33.324Z,51.10
2019-02-17T23:11:02.718Z,51.00
2019-02-17T23:13:32.151Z,51.00
2019-02-17T23:16:01.559Z,50.90
2019-02-17T23:18:30.951Z,50.80
2019-02-17T23:21:00.906Z,50.90
2019-02-17T23:23:30.325Z,51.00
2019-02-17T23:25:59.761Z,51.20
2019-02-17T23:28:29.164Z,51.30
2019-02-17T23:30:58.564Z,51.30
2019-02-17T23:33:27.972Z,51.30
2019-02-17T23:35:57.409Z,51.30
2019-02-17T23:38:26.801Z,51.20
2019-02-17T23:40:56.200Z,51.10
2019-02-17T23:43:25.665Z,51.20
2019-02-17T23:45:55.048Z,51.50
2019-02-17T23:48:24.456Z,51.50
2019-02-17T23:50:53.936Z,51.80
2019-02-17T23:53:23.343Z,52.40
2019-02-17T23:55:52.767Z,52.30
2019-02-17T23:58:22.183Z,52.80
